sensor_id;sensor_type;location;lat;lon;timestamp;P1;durP1;ratioP1;P2;durP2;ratioP2
72105;SDS011;59975;47.646;18.318;2023-02-15T00:00:53;59.23;;;21.77;;
72105;SDS011;59975;47.646;18.318;2023-02-15T00:03:21;64.70;;;24.17;;
72105;SDS011;59975;47.646;18.318;2023-02-15T00:05:47;68.83;;;24.00;;
72105;SDS011;59975;47.646;18.318;2023-02-15T00:08:12;63.75;;;24.00;;
72105;SDS011;59975;47.646;18.318;2023-02-15T00:10:38;51.92;;;22.70;;
72105;SDS011;59975;47.646;18.318;2023-02-15T00:13:04;67.20;;;24.03;;
72105;SDS011;59975;47.646;18.318;2023-02-15T00:15:29;55.45;;;23.70;;
72105;SDS011;59975;47.646;18.318;2023-02-15T00:17:56;62.30;;;24.60;;
72105;SDS011;59975;47.646;18.318;2023-02-15T00:20:22;63.25;;;23.50;;
72105;SDS011;59975;47.646;18.318;2023-02-15T00:22:47;69.07;;;24.67;;
72105;SDS011;59975;47.646;18.318;2023-02-15T00:25:13;67.73;;;24.77;;
72105;SDS011;59975;47.646;18.318;2023-02-15T00:27:38;69.03;;;26.37;;
72105;SDS011;59975;47.646;18.318;2023-02-15T00:30:04;76.22;;;27.27;;
72105;SDS011;59975;47.646;18.318;2023-02-15T00:32:30;66.67;;;24.50;;
72105;SDS011;59975;47.646;18.318;2023-02-15T00:34:56;73.72;;;28.83;;
72105;SDS011;59975;47.646;18.318;2023-02-15T00:37:21;75.87;;;30.77;;
72105;SDS011;59975;47.646;18.318;2023-02-15T00:39:47;80.87;;;29.73;;
72105;SDS011;59975;47.646;18.318;2023-02-15T00:42:12;70.27;;;27.43;;
72105;SDS011;59975;47.646;18.318;2023-02-15T00:44:38;78.25;;;29.15;;
72105;SDS011;59975;47.646;18.318;2023-02-15T00:47:03;78.33;;;28.37;;
72105;SDS011;59975;47.646;18.318;2023-02-15T00:49:29;72.03;;;27.57;;
72105;SDS011;59975;47.646;18.318;2023-02-15T00:51:54;70.47;;;27.17;;
72105;SDS011;59975;47.646;18.318;2023-02-15T00:54:20;70.18;;;29.55;;
72105;SDS011;59975;47.646;18.318;2023-02-15T00:56:45;72.10;;;27.07;;
72105;SDS011;59975;47.646;18.318;2023-02-15T00:59:11;66.97;;;27.37;;
72105;SDS011;59975;47.646;18.318;2023-02-15T01:01:36;73.82;;;28.33;;
72105;SDS011;59975;47.646;18.318;2023-02-15T01:04:02;69.47;;;28.10;;
72105;SDS011;59975;47.646;18.318;2023-02-15T01:06:27;72.37;;;27.03;;
72105;SDS011;59975;47.646;18.318;2023-02-15T01:08:53;70.33;;;25.57;;
72105;SDS011;59975;47.646;18.318;2023-02-15T01:11:20;73.50;;;24.80;;
72105;SDS011;59975;47.646;18.318;2023-02-15T01:13:48;62.07;;;26.40;;
72105;SDS011;59975;47.646;18.318;2023-02-15T01:16:14;71.57;;;27.75;;
72105;SDS011;59975;47.646;18.318;2023-02-15T01:18:39;69.72;;;27.52;;
72105;SDS011;59975;47.646;18.318;2023-02-15T01:21:12;79.25;;;25.73;;
72105;SDS011;59975;47.646;18.318;2023-02-15T01:23:40;65.57;;;26.27;;
72105;SDS011;59975;47.646;18.318;2023-02-15T01:26:07;67.45;;;25.35;;
72105;SDS011;59975;47.646;18.318;2023-02-15T01:28:33;71.88;;;26.73;;
72105;SDS011;59975;47.646;18.318;2023-02-15T01:30:59;75.93;;;25.85;;
72105;SDS011;59975;47.646;18.318;2023-02-15T01:33:29;81.10;;;29.52;;
72105;SDS011;59975;47.646;18.318;2023-02-15T01:35:57;62.13;;;26.13;;
72105;SDS011;59975;47.646;18.318;2023-02-15T01:38:23;67.80;;;24.63;;
72105;SDS011;59975;47.646;18.318;2023-02-15T01:40:52;67.07;;;25.77;;
72105;SDS011;59975;47.646;18.318;2023-02-15T01:43:18;63.70;;;24.40;;
72105;SDS011;59975;47.646;18.318;2023-02-15T01:45:44;70.83;;;27.47;;
72105;SDS011;59975;47.646;18.318;2023-02-15T01:48:20;70.88;;;27.92;;
72105;SDS011;59975;47.646;18.318;2023-02-15T01:50:57;59.88;;;25.27;;
72105;SDS011;59975;47.646;18.318;2023-02-15T01:53:28;67.35;;;26.13;;
72105;SDS011;59975;47.646;18.318;2023-02-15T01:56:01;70.43;;;25.33;;
72105;SDS011;59975;47.646;18.318;2023-02-15T01:58:30;66.72;;;26.10;;
72105;SDS011;59975;47.646;18.318;2023-02-15T02:00:58;71.05;;;26.33;;
72105;SDS011;59975;47.646;18.318;2023-02-15T02:06:27;65.03;;;26.48;;
72105;SDS011;59975;47.646;18.318;2023-02-15T02:08:53;65.50;;;25.33;;
72105;SDS011;59975;47.646;18.318;2023-02-15T02:11:20;67.10;;;27.35;;
72105;SDS011;59975;47.646;18.318;2023-02-15T02:13:45;74.15;;;28.42;;
72105;SDS011;59975;47.646;18.318;2023-02-15T02:33:19;82.43;;;32.65;;
72105;SDS011;59975;47.646;18.318;2023-02-15T02:50:05;68.20;;;29.73;;
72105;SDS011;59975;47.646;18.318;2023-02-15T02:52:46;71.72;;;31.10;;
72105;SDS011;59975;47.646;18.318;2023-02-15T02:55:16;74.78;;;32.10;;
72105;SDS011;59975;47.646;18.318;2023-02-15T02:57:48;67.97;;;30.00;;
72105;SDS011;59975;47.646;18.318;2023-02-15T03:00:20;71.15;;;30.10;;
72105;SDS011;59975;47.646;18.318;2023-02-15T03:02:47;73.97;;;29.52;;
72105;SDS011;59975;47.646;18.318;2023-02-15T03:05:16;73.30;;;28.60;;
72105;SDS011;59975;47.646;18.318;2023-02-15T03:07:47;65.20;;;28.45;;
72105;SDS011;59975;47.646;18.318;2023-02-15T03:10:16;64.17;;;25.87;;
72105;SDS011;59975;47.646;18.318;2023-02-15T03:12:44;71.95;;;27.75;;
72105;SDS011;59975;47.646;18.318;2023-02-15T03:15:12;64.88;;;24.67;;
72105;SDS011;59975;47.646;18.318;2023-02-15T03:17:47;67.43;;;25.85;;
72105;SDS011;59975;47.646;18.318;2023-02-15T03:20:22;65.20;;;23.90;;
72105;SDS011;59975;47.646;18.318;2023-02-15T03:22:52;64.93;;;25.73;;
72105;SDS011;59975;47.646;18.318;2023-02-15T03:25:32;63.35;;;24.58;;
72105;SDS011;59975;47.646;18.318;2023-02-15T03:28:00;53.58;;;23.58;;
72105;SDS011;59975;47.646;18.318;2023-02-15T03:30:30;59.40;;;23.70;;
72105;SDS011;59975;47.646;18.318;2023-02-15T03:32:57;64.37;;;24.10;;
72105;SDS011;59975;47.646;18.318;2023-02-15T03:35:25;60.40;;;22.73;;
72105;SDS011;59975;47.646;18.318;2023-02-15T03:37:59;56.85;;;23.20;;
72105;SDS011;59975;47.646;18.318;2023-02-15T03:40:30;59.55;;;23.05;;
72105;SDS011;59975;47.646;18.318;2023-02-15T03:49:07;53.05;;;23.50;;
72105;SDS011;59975;47.646;18.318;2023-02-15T03:51:37;66.70;;;24.85;;
72105;SDS011;59975;47.646;18.318;2023-02-15T03:54:07;69.88;;;25.40;;
72105;SDS011;59975;47.646;18.318;2023-02-15T03:56:35;59.33;;;23.45;;
72105;SDS011;59975;47.646;18.318;2023-02-15T03:59:02;60.77;;;23.97;;
72105;SDS011;59975;47.646;18.318;2023-02-15T04:01:48;55.67;;;22.17;;
72105;SDS011;59975;47.646;18.318;2023-02-15T04:04:33;54.17;;;21.95;;
72105;SDS011;59975;47.646;18.318;2023-02-15T04:07:05;60.30;;;24.23;;
72105;SDS011;59975;47.646;18.318;2023-02-15T04:09:32;56.20;;;23.05;;
72105;SDS011;59975;47.646;18.318;2023-02-15T04:12:16;57.17;;;22.63;;
72105;SDS011;59975;47.646;18.318;2023-02-15T04:14:41;67.40;;;23.33;;
72105;SDS011;59975;47.646;18.318;2023-02-15T04:17:25;56.80;;;22.05;;
72105;SDS011;59975;47.646;18.318;2023-02-15T04:19:51;62.17;;;22.90;;
72105;SDS011;59975;47.646;18.318;2023-02-15T04:22:35;58.92;;;20.75;;
72105;SDS011;59975;47.646;18.318;2023-02-15T04:25:19;55.83;;;21.60;;
72105;SDS011;59975;47.646;18.318;2023-02-15T04:27:45;63.93;;;22.30;;
72105;SDS011;59975;47.646;18.318;2023-02-15T04:30:14;60.30;;;23.17;;
72105;SDS011;59975;47.646;18.318;2023-02-15T04:32:41;67.32;;;23.00;;
72105;SDS011;59975;47.646;18.318;2023-02-15T04:35:07;54.33;;;21.57;;
72105;SDS011;59975;47.646;18.318;2023-02-15T04:37:34;59.92;;;22.58;;
72105;SDS011;59975;47.646;18.318;2023-02-15T04:39:59;60.97;;;23.53;;
72105;SDS011;59975;47.646;18.318;2023-02-15T04:42:25;60.70;;;22.75;;
72105;SDS011;59975;47.646;18.318;2023-02-15T04:44:51;55.70;;;21.80;;
72105;SDS011;59975;47.646;18.318;2023-02-15T04:47:17;58.38;;;21.70;;
72105;SDS011;59975;47.646;18.318;2023-02-15T04:49:43;56.95;;;22.65;;
72105;SDS011;59975;47.646;18.318;2023-02-15T04:52:09;59.47;;;21.47;;
72105;SDS011;59975;47.646;18.318;2023-02-15T04:54:34;52.20;;;20.53;;
72105;SDS011;59975;47.646;18.318;2023-02-15T04:57:00;52.42;;;22.10;;
72105;SDS011;59975;47.646;18.318;2023-02-15T04:59:26;53.90;;;21.88;;
72105;SDS011;59975;47.646;18.318;2023-02-15T05:01:51;46.43;;;20.23;;
72105;SDS011;59975;47.646;18.318;2023-02-15T05:04:17;52.43;;;20.83;;
72105;SDS011;59975;47.646;18.318;2023-02-15T05:06:43;50.53;;;20.05;;
72105;SDS011;59975;47.646;18.318;2023-02-15T05:09:08;47.80;;;19.37;;
72105;SDS011;59975;47.646;18.318;2023-02-15T05:11:34;58.00;;;18.17;;
72105;SDS011;59975;47.646;18.318;2023-02-15T05:13:59;48.85;;;19.90;;
72105;SDS011;59975;47.646;18.318;2023-02-15T05:16:24;57.13;;;19.07;;
72105;SDS011;59975;47.646;18.318;2023-02-15T05:18:52;51.58;;;19.58;;
72105;SDS011;59975;47.646;18.318;2023-02-15T05:21:18;55.60;;;21.13;;
72105;SDS011;59975;47.646;18.318;2023-02-15T05:23:43;55.13;;;19.80;;
72105;SDS011;59975;47.646;18.318;2023-02-15T05:26:10;57.20;;;20.50;;
72105;SDS011;59975;47.646;18.318;2023-02-15T05:28:55;49.88;;;21.33;;
72105;SDS011;59975;47.646;18.318;2023-02-15T05:31:20;54.33;;;18.80;;
72105;SDS011;59975;47.646;18.318;2023-02-15T05:33:46;59.30;;;21.05;;
72105;SDS011;59975;47.646;18.318;2023-02-15T05:36:11;47.77;;;18.73;;
72105;SDS011;59975;47.646;18.318;2023-02-15T05:38:37;61.75;;;20.10;;
72105;SDS011;59975;47.646;18.318;2023-02-15T05:41:04;53.97;;;20.88;;
72105;SDS011;59975;47.646;18.318;2023-02-15T05:43:31;56.85;;;22.83;;
72105;SDS011;59975;47.646;18.318;2023-02-15T05:45:57;51.10;;;20.98;;
72105;SDS011;59975;47.646;18.318;2023-02-15T05:48:24;52.35;;;19.77;;
72105;SDS011;59975;47.646;18.318;2023-02-15T05:51:24;56.93;;;21.17;;
72105;SDS011;59975;47.646;18.318;2023-02-15T05:53:42;48.15;;;19.95;;
72105;SDS011;59975;47.646;18.318;2023-02-15T05:56:09;55.88;;;21.58;;
72105;SDS011;59975;47.646;18.318;2023-02-15T05:58:36;49.83;;;20.20;;
72105;SDS011;59975;47.646;18.318;2023-02-15T06:03:35;66.50;;;22.45;;
72105;SDS011;59975;47.646;18.318;2023-02-15T06:06:01;56.55;;;22.77;;
72105;SDS011;59975;47.646;18.318;2023-02-15T06:08:29;60.30;;;21.95;;
72105;SDS011;59975;47.646;18.318;2023-02-15T06:10:55;53.67;;;20.60;;
72105;SDS011;59975;47.646;18.318;2023-02-15T06:13:21;54.23;;;21.20;;
72105;SDS011;59975;47.646;18.318;2023-02-15T06:15:46;57.42;;;19.33;;
72105;SDS011;59975;47.646;18.318;2023-02-15T06:18:12;52.33;;;18.90;;
72105;SDS011;59975;47.646;18.318;2023-02-15T06:20:40;53.17;;;20.23;;
72105;SDS011;59975;47.646;18.318;2023-02-15T06:23:06;59.78;;;21.73;;
72105;SDS011;59975;47.646;18.318;2023-02-15T06:25:31;52.33;;;18.97;;
72105;SDS011;59975;47.646;18.318;2023-02-15T06:28:00;57.10;;;20.52;;
72105;SDS011;59975;47.646;18.318;2023-02-15T06:30:25;52.70;;;19.63;;
72105;SDS011;59975;47.646;18.318;2023-02-15T06:32:51;56.83;;;20.98;;
72105;SDS011;59975;47.646;18.318;2023-02-15T06:35:17;52.45;;;19.65;;
72105;SDS011;59975;47.646;18.318;2023-02-15T06:37:44;57.43;;;21.37;;
72105;SDS011;59975;47.646;18.318;2023-02-15T06:40:14;53.53;;;20.13;;
72105;SDS011;59975;47.646;18.318;2023-02-15T06:42:42;71.82;;;27.50;;
72105;SDS011;59975;47.646;18.318;2023-02-15T06:45:15;63.33;;;22.92;;
72105;SDS011;59975;47.646;18.318;2023-02-15T06:47:46;56.00;;;22.10;;
72105;SDS011;59975;47.646;18.318;2023-02-15T12:24:23;26.15;;;12.68;;
72105;SDS011;59975;47.646;18.318;2023-02-15T12:27:03;29.00;;;13.68;;
72105;SDS011;59975;47.646;18.318;2023-02-15T12:29:41;30.65;;;13.02;;
72105;SDS011;59975;47.646;18.318;2023-02-15T12:32:25;27.07;;;12.50;;
72105;SDS011;59975;47.646;18.318;2023-02-15T12:38:20;30.23;;;14.90;;
72105;SDS011;59975;47.646;18.318;2023-02-15T12:41:23;29.30;;;13.68;;
72105;SDS011;59975;47.646;18.318;2023-02-15T12:44:02;33.15;;;14.13;;
72105;SDS011;59975;47.646;18.318;2023-02-15T12:46:31;29.30;;;12.70;;
72105;SDS011;59975;47.646;18.318;2023-02-15T12:49:07;31.88;;;13.98;;
72105;SDS011;59975;47.646;18.318;2023-02-15T12:51:52;35.42;;;16.00;;
72105;SDS011;59975;47.646;18.318;2023-02-15T12:56:50;30.70;;;13.70;;
72105;SDS011;59975;47.646;18.318;2023-02-15T12:59:16;30.97;;;14.30;;
72105;SDS011;59975;47.646;18.318;2023-02-15T13:01:46;29.52;;;13.77;;
72105;SDS011;59975;47.646;18.318;2023-02-15T13:04:22;32.53;;;14.43;;
72105;SDS011;59975;47.646;18.318;2023-02-15T13:06:49;28.85;;;13.75;;
72105;SDS011;59975;47.646;18.318;2023-02-15T13:09:20;31.25;;;14.70;;
72105;SDS011;59975;47.646;18.318;2023-02-15T13:11:50;33.20;;;15.23;;
72105;SDS011;59975;47.646;18.318;2023-02-15T13:14:20;31.70;;;15.00;;
72105;SDS011;59975;47.646;18.318;2023-02-15T13:16:53;31.60;;;14.50;;
72105;SDS011;59975;47.646;18.318;2023-02-15T13:19:29;30.00;;;14.10;;
72105;SDS011;59975;47.646;18.318;2023-02-15T13:22:01;34.73;;;15.40;;
72105;SDS011;59975;47.646;18.318;2023-02-15T13:24:35;33.50;;;14.43;;
72105;SDS011;59975;47.646;18.318;2023-02-15T13:27:05;31.73;;;16.63;;
72105;SDS011;59975;47.646;18.318;2023-02-15T13:29:38;35.97;;;15.38;;
72105;SDS011;59975;47.646;18.318;2023-02-15T13:34:53;30.70;;;14.00;;
72105;SDS011;59975;47.646;18.318;2023-02-15T13:54:29;33.55;;;15.38;;
72105;SDS011;59975;47.646;18.318;2023-02-15T13:57:01;35.90;;;15.05;;
72105;SDS011;59975;47.646;18.318;2023-02-15T14:02:59;31.73;;;14.47;;
72105;SDS011;59975;47.646;18.318;2023-02-15T14:19:13;36.15;;;15.32;;
72105;SDS011;59975;47.646;18.318;2023-02-15T14:29:57;36.60;;;14.60;;
72105;SDS011;59975;47.646;18.318;2023-02-15T14:34:59;41.67;;;18.37;;
72105;SDS011;59975;47.646;18.318;2023-02-15T14:45:56;33.55;;;15.73;;
72105;SDS011;59975;47.646;18.318;2023-02-15T14:49:27;39.13;;;15.87;;
72105;SDS011;59975;47.646;18.318;2023-02-15T14:54:08;31.45;;;14.85;;
72105;SDS011;59975;47.646;18.318;2023-02-15T14:56:35;35.53;;;16.13;;
72105;SDS011;59975;47.646;18.318;2023-02-15T14:59:11;35.25;;;15.95;;
72105;SDS011;59975;47.646;18.318;2023-02-15T15:01:37;36.83;;;16.02;;
72105;SDS011;59975;47.646;18.318;2023-02-15T15:04:05;41.25;;;16.15;;
72105;SDS011;59975;47.646;18.318;2023-02-15T15:06:35;38.28;;;17.13;;
72105;SDS011;59975;47.646;18.318;2023-02-15T15:14:46;34.28;;;15.80;;
72105;SDS011;59975;47.646;18.318;2023-02-15T15:17:14;36.22;;;16.30;;
72105;SDS011;59975;47.646;18.318;2023-02-15T15:20:14;31.02;;;16.30;;
72105;SDS011;59975;47.646;18.318;2023-02-15T15:25:40;39.80;;;16.75;;
72105;SDS011;59975;47.646;18.318;2023-02-15T15:28:10;36.20;;;15.88;;
72105;SDS011;59975;47.646;18.318;2023-02-15T15:42:11;33.65;;;14.77;;
72105;SDS011;59975;47.646;18.318;2023-02-15T15:47:35;32.28;;;14.32;;
72105;SDS011;59975;47.646;18.318;2023-02-15T15:50:14;34.05;;;14.98;;
72105;SDS011;59975;47.646;18.318;2023-02-15T15:52:46;37.80;;;15.18;;
72105;SDS011;59975;47.646;18.318;2023-02-15T15:55:15;41.78;;;16.15;;
72105;SDS011;59975;47.646;18.318;2023-02-15T15:57:44;42.08;;;18.48;;
72105;SDS011;59975;47.646;18.318;2023-02-15T16:03:50;37.33;;;16.58;;
72105;SDS011;59975;47.646;18.318;2023-02-15T16:09:38;51.50;;;22.27;;
72105;SDS011;59975;47.646;18.318;2023-02-15T16:21:35;54.00;;;21.48;;
72105;SDS011;59975;47.646;18.318;2023-02-15T16:33:33;55.15;;;23.73;;
72105;SDS011;59975;47.646;18.318;2023-02-15T16:39:23;64.18;;;25.88;;
72105;SDS011;59975;47.646;18.318;2023-02-15T16:41:48;67.95;;;27.60;;
72105;SDS011;59975;47.646;18.318;2023-02-15T16:47:43;61.50;;;26.95;;
72105;SDS011;59975;47.646;18.318;2023-02-15T16:53:35;72.13;;;32.58;;
